Time;durP1;ratioP1;P1;durP2;ratioP2;P2;SDS_P1;SDS_P2;PMS_P1;PMS_P2;Temp;Humidity;BMP_temperature;BMP_pressure;BME280_temperature;BME280_humidity;BME280_pressure;Samples;Min_cycle;Max_cycle;Signal;HPM_P1;HPM_P2
2022/03/04 07:30:34;;;;;;;32.55;11.52;;;;;;;0.40;54.76;98766.84;5033037;28;20064;-77
2022/03/04 07:33:02;;;;;;;17.15;8.57;;;;;;;0.50;55.01;98768.75;5016535;28;20048;-75
2022/03/04 07:35:27;;;;;;;24.02;9.48;;;;;;;0.64;55.02;98771.59;5034029;28;20029;-75
2022/03/04 07:37:57;;;;;;;17.00;10.00;;;;;;;0.72;53.97;98775.19;5034328;28;20083;-75
2022/03/04 07:40:23;;;;;;;21.58;10.07;;;;;;;0.50;54.27;98779.84;5009147;28;20509;-77
2022/03/04 07:42:49;;;;;;;22.15;9.52;;;;;;;0.59;54.73;98768.09;5033266;28;20388;-74
2022/03/04 07:45:15;;;;;;;25.15;11.02;;;;;;;0.72;54.12;98780.28;5032553;28;20064;-76
2022/03/04 07:47:41;;;;;;;20.00;11.35;;;;;;;0.47;54.22;98777.22;5034386;28;20033;-77
2022/03/04 07:50:10;;;;;;;17.70;9.82;;;;;;;0.46;54.76;98772.94;5016692;28;20452;-77
2022/03/04 07:52:35;;;;;;;18.23;9.93;;;;;;;0.47;55.06;98769.56;5016392;28;20037;-77
2022/03/04 07:55:03;;;;;;;21.70;10.85;;;;;;;0.53;54.68;98778.19;5016165;28;20068;-76
2022/03/04 07:57:28;;;;;;;24.98;11.52;;;;;;;0.52;55.00;98776.47;5032518;28;20480;-77
2022/03/04 07:59:54;;;;;;;28.33;13.25;;;;;;;0.52;55.28;98787.53;5031803;28;20052;-75
2022/03/04 08:02:20;;;;;;;26.50;9.52;;;;;;;0.83;54.55;98794.16;5033308;28;20056;-76
2022/03/04 08:04:46;;;;;;;24.00;11.35;;;;;;;0.86;54.27;98799.28;5032172;28;20076;-75
2022/03/04 08:07:13;;;;;;;16.77;9.13;;;;;;;0.83;54.39;98789.03;5015972;28;20341;-75
2022/03/04 08:09:38;;;;;;;14.80;9.02;;;;;;;0.89;54.27;98789.16;5016274;28;20037;-75
2022/03/04 08:12:05;;;;;;;23.63;10.77;;;;;;;0.96;53.84;98791.00;5032734;28;20039;-76
2022/03/04 08:14:30;;;;;;;;;;;;;;;1.09;53.01;98802.31;5032810;28;20037;-76
2022/03/04 08:16:56;;;;;;;17.52;10.30;;;;;;;1.15;52.82;98794.78;5032319;28;20359;-75
2022/03/04 08:19:23;;;;;;;22.80;10.75;;;;;;;0.93;53.56;98790.09;5032082;28;20041;-76
2022/03/04 08:21:50;;;;;;;21.77;10.50;;;;;;;0.93;53.97;98802.84;5031941;28;20121;-75
2022/03/04 08:24:16;;;;;;;20.40;9.45;;;;;;;0.80;54.55;98799.19;5033194;28;20536;-74
2022/03/04 08:26:41;;;;;;;17.23;10.30;;;;;;;0.86;54.22;98790.78;5032097;28;20037;-76
2022/03/04 08:29:10;;;;;;;17.02;9.98;;;;;;;0.84;53.80;98792.44;5031607;28;20042;-76
2022/03/04 08:31:37;;;;;;;17.77;10.55;;;;;;;0.78;54.30;98795.75;5015134;28;20049;-75
2022/03/04 08:34:02;;;;;;;;;;;;;;;0.81;54.64;98792.38;5032396;28;20516;-76
2022/03/04 08:36:28;;;;;;;19.45;11.15;;;;;;;0.71;54.27;98783.66;5032926;28;19920;-76
2022/03/04 08:38:53;;;;;;;16.98;8.43;;;;;;;0.55;55.82;98781.59;5031916;28;20034;-76
2022/03/04 08:41:19;;;;;;;24.30;12.20;;;;;;;0.76;55.28;98787.19;5031986;28;20057;-76
2022/03/04 08:43:47;;;;;;;29.80;12.38;;;;;;;0.76;55.11;98793.13;5031871;28;20057;-74
2022/03/04 08:46:14;;;;;;;23.20;10.35;;;;;;;0.74;55.18;98791.41;5031542;28;20386;-75
2022/03/04 08:48:43;;;;;;;21.48;10.68;;;;;;;0.89;54.60;98785.75;5031391;28;20118;-76
2022/03/04 08:51:08;;;;;;;25.95;9.35;;;;;;;1.12;54.04;98770.88;5031708;28;20407;-76
2022/03/04 08:53:34;;;;;;;21.92;9.93;;;;;;;1.13;53.90;98777.69;5015150;28;20045;-76
2022/03/04 08:56:00;;;;;;;;;;;;;;;1.21;53.26;98781.25;5033120;28;20061;-78
2022/03/04 08:58:26;;;;;;;19.88;9.85;;;;;;;1.38;52.95;98779.88;5014975;28;20395;-75
2022/03/04 09:00:51;;;;;;;16.77;9.55;;;;;;;1.52;52.49;98778.44;5015178;28;20048;-77
2022/03/04 09:03:17;;;;;;;24.13;10.30;;;;;;;1.51;52.74;98786.06;5031416;28;20044;-75
2022/03/04 09:05:43;;;;;;;17.92;9.32;;;;;;;1.54;52.30;98786.13;5032657;28;20037;-76
2022/03/04 09:08:08;;;;;;;18.77;9.63;;;;;;;1.58;52.31;98781.94;5031320;28;20100;-76
2022/03/04 09:10:34;;;;;;;21.70;9.88;;;;;;;1.50;52.65;98782.66;5030671;28;20046;-75
2022/03/04 09:13:00;;;;;;;21.80;10.32;;;;;;;1.26;53.70;98785.63;5030776;28;20045;-74
2022/03/04 09:15:26;;;;;;;21.40;10.98;;;;;;;1.15;53.47;98786.28;5014551;28;20040;-76
2022/03/04 09:17:51;;;;;;;37.30;10.35;;;;;;;1.38;53.47;98786.69;5032321;28;20037;-74
2022/03/04 09:20:19;;;;;;;21.02;9.60;;;;;;;1.29;53.73;98794.19;5032126;28;20056;-76
2022/03/04 09:22:48;;;;;;;24.88;9.70;;;;;;;1.26;54.22;98784.75;5015527;28;20488;-76
2022/03/04 09:25:14;;;;;;;20.88;9.18;;;;;;;1.47;53.42;98790.28;5031102;28;20025;-76
2022/03/04 09:27:43;;;;;;;23.33;10.35;;;;;;;1.56;52.26;98788.69;5031042;28;20048;-76
2022/03/04 09:30:11;;;;;;;20.90;9.45;;;;;;;1.56;52.91;98788.69;5031161;28;20049;-77
2022/03/04 09:32:38;;;;;;;23.20;11.25;;;;;;;1.68;52.34;98799.16;5014683;28;20072;-76
2022/03/04 09:35:05;;;;;;;23.88;11.05;;;;;;;1.76;51.97;98788.22;5015064;28;20404;-76
2022/03/04 09:37:31;;;;;;;20.58;8.98;;;;;;;1.73;52.26;98783.03;5032211;28;20110;-74
2022/03/04 09:39:57;;;;;;;20.33;9.35;;;;;;;1.83;52.20;98791.72;5030929;28;20038;-75
2022/03/04 09:42:22;;;;;;;20.55;10.52;;;;;;;1.90;51.75;98783.34;5031615;28;20471;-76
2022/03/04 09:44:48;;;;;;;17.58;8.60;;;;;;;1.84;52.13;98777.28;5031608;28;20065;-78
2022/03/04 09:47:16;;;;;;;21.63;7.75;;;;;;;1.89;52.05;98773.09;5030851;28;20520;-76
2022/03/04 09:49:41;;;;;;;15.07;8.60;;;;;;;1.99;51.53;98778.38;5030730;28;20041;-76
2022/03/04 09:52:08;;;;;;;18.52;8.05;;;;;;;1.88;52.04;98766.22;5031088;28;20426;-79
2022/03/04 09:54:34;;;;;;;16.30;7.88;;;;;;;2.06;51.41;98766.53;5031994;28;20089;-76
2022/03/04 09:57:00;;;;;;;16.27;8.55;;;;;;;1.88;51.78;98769.69;5032208;28;20041;-78
2022/03/04 09:59:25;;;;;;;15.63;9.48;;;;;;;1.91;51.85;98772.25;5031125;28;20038;-75
2022/03/04 10:01:52;;;;;;;23.33;8.70;;;;;;;1.85;52.30;98774.72;5032101;28;20037;-76
2022/03/04 10:04:18;;;;;;;20.27;10.15;;;;;;;1.95;51.59;98776.59;5014217;28;20115;-77
2022/03/04 10:06:48;;;;;;;19.75;9.70;;;;;;;2.06;51.75;98783.56;5013952;28;20045;-77
2022/03/04 10:09:35;;;;;;;14.82;8.60;;;;;;;2.06;51.89;98788.69;5032370;28;20049;-75
2022/03/04 10:12:02;;;;;;;18.38;8.30;;;;;;;1.90;52.04;98782.47;5030927;28;20037;-76
2022/03/04 10:14:28;;;;;;;15.40;8.07;;;;;;;1.81;52.58;98779.78;5030799;28;20384;-76
2022/03/04 10:16:58;;;;;;;19.65;9.63;;;;;;;1.65;53.19;98791.41;5014251;28;20041;-77
2022/03/04 10:19:24;;;;;;;20.17;10.90;;;;;;;1.64;53.19;98787.16;5031172;28;20420;-78
2022/03/04 10:22:04;;;;;;;15.63;8.27;;;;;;;1.59;53.51;98788.75;5030513;28;20048;-78
2022/03/04 10:24:34;;;;;;;13.98;8.70;;;;;;;1.51;53.43;98792.06;5035461;28;20045;-75
2022/03/04 10:27:03;;;;;;;23.92;8.15;;;;;;;1.59;53.36;98798.97;5034356;28;20037;-77
2022/03/04 10:29:30;;;;;;;12.07;7.80;;;;;;;1.72;52.71;98794.13;5017462;28;20037;-77
2022/03/04 10:32:11;;;;;;;23.70;8.15;;;;;;;1.73;52.94;98797.53;5017744;28;20449;-77
2022/03/04 10:34:53;;;;;;;18.25;8.75;;;;;;;1.65;53.00;98791.41;5035294;28;20037;-76
2022/03/04 10:37:22;;;;;;;20.95;7.55;;;;;;;1.69;52.72;98780.41;5034207;28;20037;-78
2022/03/04 10:40:00;;;;;;;17.95;7.97;;;;;;;1.76;52.33;98797.59;5034275;28;20029;-76
2022/03/04 10:42:45;;;;;;;16.77;8.30;;;;;;;1.86;52.45;98801.16;5035350;28;20091;-77
2022/03/04 10:45:19;;;;;;;16.30;6.60;;;;;;;2.00;52.12;98787.75;5034009;28;20048;-76
2022/03/04 10:48:00;;;;;;;19.08;7.10;;;;;;;2.24;51.53;98783.84;5033852;28;20091;-79
2022/03/04 10:50:58;;;;;;;13.90;7.45;;;;;;;2.11;51.27;98775.16;5018369;28;20562;-78
2022/03/04 10:53:28;;;;;;;13.50;8.23;;;;;;;2.06;51.86;98771.63;5023452;28;20068;-78
2022/03/04 10:55:55;;;;;;;12.23;6.75;;;;;;;2.29;51.74;98770.31;5033651;28;20493;-75
2022/03/04 10:58:25;;;;;;;15.27;7.22;;;;;;;2.47;50.83;98766.25;5000676;28;20120;-76
2022/03/04 11:00:55;;;;;;;21.13;6.80;;;;;;;2.67;50.61;98781.91;5034127;28;20136;-76
2022/03/04 11:03:26;;;;;;;13.80;7.60;;;;;;;2.77;50.21;98778.63;5033974;28;20484;-77
2022/03/04 11:05:53;;;;;;;13.70;7.40;;;;;;;2.66;49.83;98760.56;5017686;28;20067;-78
2022/03/04 11:08:20;;;;;;;17.33;7.22;;;;;;;2.67;49.77;98771.69;5034608;28;20040;-76
2022/03/04 11:10:46;;;;;;;16.67;7.15;;;;;;;2.79;49.66;98774.38;5017317;28;20079;-77
2022/03/04 11:13:13;;;;;;;15.48;7.03;;;;;;;2.93;49.36;98764.28;5017439;28;20037;-76
2022/03/04 11:15:39;;;;;;;17.45;7.30;;;;;;;2.89;48.75;98770.25;5033781;28;20045;-76
2022/03/04 11:18:09;;;;;;;13.23;6.55;;;;;;;3.12;49.67;98770.53;5016327;28;20048;-75
2022/03/04 11:20:35;;;;;;;13.07;6.60;;;;;;;3.22;48.45;98768.06;5032901;28;20049;-76
2022/03/04 11:23:01;;;;;;;19.52;13.18;;;;;;;3.43;48.02;98762.28;5033379;28;20508;-75
2022/03/04 11:25:34;;;;;;;20.33;7.90;;;;;;;3.44;47.88;98764.03;5034112;28;20038;-76
2022/03/04 11:28:09;;;;;;;12.25;7.10;;;;;;;3.76;47.27;98763.47;5032852;28;20045;-75
2022/03/04 11:30:42;;;;;;;21.88;7.72;;;;;;;3.80;46.95;98749.78;5017320;28;20052;-76
2022/03/04 11:33:21;;;;;;;15.98;7.10;;;;;;;3.89;46.31;98754.16;5017110;28;20045;-75
2022/03/04 11:35:58;;;;;;;14.98;6.38;;;;;;;4.08;46.40;98738.91;5033539;28;20045;-75
2022/03/04 11:38:46;;;;;;;17.13;6.70;;;;;;;4.36;45.11;98751.94;5032855;28;20555;-78
2022/03/04 11:41:37;;;;;;;25.83;7.68;;;;;;;4.53;44.69;98737.47;5032911;28;20122;-78
2022/03/04 11:44:15;;;;;;;17.42;6.75;;;;;;;4.48;44.37;98749.41;5016581;28;20049;-76
2022/03/04 11:46:42;;;;;;;13.55;6.97;;;;;;;4.50;44.92;98745.16;5033666;28;20128;-77
2022/03/04 11:49:38;;;;;;;13.18;6.72;;;;;;;4.74;44.96;98744.41;5031859;28;20033;-75
2022/03/04 11:54:48;;;;;;;17.08;7.50;;;;;;;4.72;44.00;98742.69;5032542;28;20046;-75
2022/03/04 11:57:20;;;;;;;18.88;7.07;;;;;;;4.66;44.28;98737.53;5032385;28;20041;-76
2022/03/04 11:59:57;;;;;;;14.40;6.85;;;;;;;4.79;44.30;98742.72;5033888;28;20291;-76
2022/03/04 12:02:29;;;;;;;16.40;7.43;;;;;;;4.85;43.92;98736.75;5033173;28;20114;-77
2022/03/04 12:05:18;;;;;;;14.63;8.02;;;;;;;5.05;43.00;98737.69;5032228;28;20040;-75
2022/03/04 12:07:56;;;;;;;20.63;8.10;;;;;;;5.19;43.07;98744.59;5029771;28;20051;-75
2022/03/04 12:10:24;;;;;;;31.85;8.98;;;;;;;5.14;43.25;98746.28;5032917;28;20508;-75
2022/03/04 12:13:00;;;;;;;16.25;7.63;;;;;;;5.17;42.97;98743.72;5015756;28;20041;-75
2022/03/04 12:15:26;;;;;;;14.68;8.15;;;;;;;5.24;43.01;98740.31;5015489;28;20057;-76
2022/03/04 12:17:59;;;;;;;19.85;8.65;;;;;;;5.34;42.38;98750.63;5033307;28;20039;-77
2022/03/04 12:20:51;;;;;;;15.68;7.57;;;;;;;5.29;42.16;98741.19;5032092;28;20073;-76
2022/03/04 12:23:17;;;;;;;20.98;9.32;;;;;;;5.32;42.80;98738.63;5027507;28;20057;-77
2022/03/04 12:25:52;;;;;;;;;;;;;;;5.72;42.46;98739.50;5033604;28;20770;-79
2022/03/04 12:28:20;;;;;;;17.83;8.30;;;;;;;5.74;41.51;98742.97;5031726;28;19928;-75
2022/03/04 12:30:46;;;;;;;16.98;8.43;;;;;;;5.74;41.34;98747.25;5015595;28;20049;-77
2022/03/04 12:33:12;;;;;;;13.88;6.85;;;;;;;5.79;42.14;98738.66;5032076;28;20596;-76
2022/03/04 12:35:38;;;;;;;21.15;9.00;;;;;;;5.95;41.12;98734.41;5032015;28;20037;-79
2022/03/04 12:38:04;;;;;;;18.23;7.57;;;;;;;6.42;40.67;98743.81;5031787;28;20039;-79
2022/03/04 12:40:29;;;;;;;19.98;8.23;;;;;;;6.25;40.18;98743.81;5032897;28;20060;-76
2022/03/04 12:42:56;;;;;;;27.48;10.00;;;;;;;6.24;41.07;98741.25;4999118;28;20099;-77
2022/03/04 12:45:21;;;;;;;;;;;;;;;6.40;40.84;98736.94;5031780;28;20051;-75
2022/03/04 12:47:48;;;;;;;12.83;7.03;;;;;;;6.21;39.96;98730.97;5032968;28;19956;-77
2022/03/04 12:50:14;;;;;;;20.90;9.75;;;;;;;6.13;40.76;98743.81;5015238;28;20691;-77
2022/03/04 12:52:40;;;;;;;19.60;9.57;;;;;;;5.83;41.07;98742.13;5031646;28;20781;-78
2022/03/04 12:55:08;;;;;;;21.98;10.50;;;;;;;5.72;41.09;98739.50;5032665;28;20044;-75
2022/03/04 12:57:33;;;;;;;22.02;9.13;;;;;;;5.90;41.46;98730.09;5032441;28;20847;-76
2022/03/04 12:59:59;;;;;;;20.60;9.35;;;;;;;6.02;41.20;98725.81;5031547;28;20060;-74
2022/03/04 13:02:37;;;;;;;20.35;9.32;;;;;;;5.90;40.32;98730.94;5032269;28;20067;-76
2022/03/04 13:05:03;;;;;;;22.38;10.25;;;;;;;6.13;41.05;98730.09;5031683;28;20049;-77
2022/03/04 13:07:29;;;;;;;16.58;7.65;;;;;;;6.23;40.67;98732.69;5031217;28;20086;-77
2022/03/04 13:09:57;;;;;;;17.77;9.75;;;;;;;6.38;39.78;98739.50;5014737;28;20041;-76
2022/03/04 13:12:23;;;;;;;19.38;8.85;;;;;;;6.88;39.80;98730.78;5031442;28;20029;-78
2022/03/04 13:14:49;;;;;;;18.02;9.00;;;;;;;6.76;38.61;98730.81;5014686;28;20049;-76
2022/03/04 13:17:14;;;;;;;17.15;7.75;;;;;;;6.47;39.47;98730.91;5031118;28;20038;-76
2022/03/04 13:19:40;;;;;;;21.05;8.90;;;;;;;6.19;39.89;98738.69;5014501;28;20531;-74
2022/03/04 13:22:06;;;;;;;27.65;8.90;;;;;;;6.05;40.04;98735.28;5030923;28;20049;-75
2022/03/04 13:24:37;;;;;;;17.40;7.63;;;;;;;5.96;40.29;98731.00;5014512;28;20160;-78
2022/03/04 13:27:16;;;;;;;16.70;7.85;;;;;;;5.84;40.27;98733.53;5014672;28;20033;-76
2022/03/04 13:29:44;;;;;;;23.23;7.68;;;;;;;5.61;41.38;98734.38;5014915;28;20095;-78
2022/03/04 13:32:16;;;;;;;19.15;8.20;;;;;;;5.56;41.10;98741.22;5015298;28;20045;-77
2022/03/04 13:34:44;;;;;;;30.48;7.72;;;;;;;5.34;41.10;98739.47;5030902;28;20041;-75
2022/03/04 13:37:10;;;;;;;19.65;7.80;;;;;;;5.09;41.95;98747.13;5032411;28;20037;-77
2022/03/04 13:39:37;;;;;;;14.38;7.18;;;;;;;4.88;42.07;98735.91;5031013;28;20068;-76
2022/03/04 13:42:28;;;;;;;;;;;;;;;4.96;42.67;98737.66;5031562;28;20034;-76
2022/03/04 13:45:01;;;;;;;21.92;8.73;;;;;;;4.76;42.34;98739.28;5029312;28;19917;-76
2022/03/04 13:47:40;;;;;;;23.42;7.38;;;;;;;4.40;42.90;98745.97;5015195;28;20504;-74
2022/03/04 13:50:22;;;;;;;14.32;6.50;;;;;;;4.04;44.18;98754.28;5015047;28;20053;-76
2022/03/04 14:35:51;;;;;;;14.50;6.18;;;;;;;2.32;48.63;98766.91;5030089;28;20083;-75
2022/03/04 14:38:18;;;;;;;15.93;5.70;;;;;;;2.20;48.96;98759.94;5019032;28;20045;-76
2022/03/04 14:40:44;;;;;;;16.55;5.80;;;;;;;2.02;49.55;98768.19;5034141;28;20087;-76
2022/03/04 14:43:09;;;;;;;;;;;;;;;2.02;49.84;98786.09;5018412;28;20041;-76
2022/03/04 14:45:36;;;;;;;15.77;5.82;;;;;;;2.01;50.09;98791.16;5033839;28;19924;-74
2022/03/04 14:48:02;;;;;;;14.80;5.38;;;;;;;1.90;50.04;98780.78;5033720;28;20041;-79
2022/03/04 14:50:29;;;;;;;23.83;6.20;;;;;;;1.74;50.76;98789.00;5017710;28;20041;-79
2022/03/04 14:52:55;;;;;;;15.15;6.22;;;;;;;1.60;51.52;98787.91;5035159;28;20041;-76
2022/03/04 14:55:21;;;;;;;;;;;;;;;1.49;51.99;98785.19;5034488;28;20086;-77
2022/03/04 14:57:48;;;;;;;19.35;6.22;;;;;;;1.56;51.60;98793.81;5034000;28;19917;-76
2022/03/04 15:00:18;;;;;;;18.73;6.03;;;;;;;1.34;52.71;98784.91;5034432;28;20041;-77
2022/03/04 15:02:47;;;;;;;13.77;5.07;;;;;;;1.41;52.22;98794.41;5034069;28;20038;-77
2022/03/04 15:05:17;;;;;;;13.98;5.68;;;;;;;1.48;51.98;98789.44;5034887;28;20061;-75
2022/03/04 15:07:42;;;;;;;10.90;4.60;;;;;;;1.38;52.16;98785.00;5035265;28;20041;-76
2022/03/04 15:10:08;;;;;;;9.32;3.08;;;;;;;1.51;51.67;98789.50;5016328;28;20040;-77
2022/03/04 15:12:34;;;;;;;;;;;;;;;1.41;51.79;98794.41;5035067;28;20033;-75
2022/03/04 15:15:00;;;;;;;10.65;4.68;;;;;;;1.54;51.34;98791.25;5031694;28;19913;-78
2022/03/04 15:17:26;;;;;;;22.05;4.95;;;;;;;1.29;52.15;98800.16;5000926;28;20504;-76
2022/03/04 15:19:52;;;;;;;10.70;4.60;;;;;;;1.23;51.87;98787.25;5033592;28;20045;-78
2022/03/04 15:22:18;;;;;;;11.45;4.43;;;;;;;1.11;53.17;98804.91;5034702;28;20041;-79
2022/03/04 15:24:43;;;;;;;9.95;4.10;;;;;;;1.05;53.29;98805.63;5027550;28;20133;-79
2022/03/04 15:27:10;;;;;;;12.70;4.93;;;;;;;1.18;52.69;98805.03;5013272;28;20132;-78
2022/03/04 15:29:35;;;;;;;15.23;4.30;;;;;;;1.00;52.69;98813.19;5013382;28;20079;-75
2022/03/04 15:32:04;;;;;;;9.93;4.07;;;;;;;1.09;53.07;98807.41;5019222;28;20061;-75
2022/03/04 15:34:31;;;;;;;9.55;4.35;;;;;;;1.07;53.21;98803.13;4996585;28;20544;-76
2022/03/04 15:36:58;;;;;;;15.68;4.28;;;;;;;0.99;53.09;98808.94;5028660;28;20075;-78
2022/03/04 15:39:23;;;;;;;9.93;4.38;;;;;;;0.87;53.29;98816.38;5015870;28;20048;-76
2022/03/04 15:41:49;;;;;;;14.82;5.15;;;;;;;0.72;54.20;98816.00;5013605;28;20038;-76
2022/03/04 15:44:16;;;;;;;;;;;;;;;0.88;54.00;98812.97;4996947;28;20512;-74
2022/03/04 15:46:41;;;;;;;8.68;3.60;;;;;;;0.70;54.63;98817.69;5020847;28;19945;-75
2022/03/04 15:49:07;;;;;;;9.05;4.57;;;;;;;0.70;54.11;98823.66;5031914;28;20069;-75
2022/03/04 15:51:33;;;;;;;9.02;4.72;;;;;;;0.68;54.70;98839.75;5014122;28;20033;-74
2022/03/04 15:53:58;;;;;;;12.35;5.13;;;;;;;0.62;54.54;98834.53;5012371;28;20038;-79
2022/03/04 15:56:24;;;;;;;9.65;4.45;;;;;;;0.49;55.24;98834.22;5032183;28;20037;-76
2022/03/04 15:58:49;;;;;;;13.40;4.50;;;;;;;0.49;54.97;98835.94;5018144;28;20358;-74
2022/03/04 16:01:15;;;;;;;8.40;4.75;;;;;;;0.46;55.34;98833.34;5015968;28;20049;-75
2022/03/04 16:03:41;;;;;;;11.18;4.35;;;;;;;0.45;55.51;98842.66;5013151;28;20045;-76
2022/03/04 16:06:07;;;;;;;14.95;5.10;;;;;;;0.42;55.77;98837.50;5013168;28;20394;-75
2022/03/04 16:08:32;;;;;;;22.35;6.03;;;;;;;0.51;55.41;98841.94;5015094;28;20405;-75
2022/03/04 16:10:58;;;;;;;20.83;5.97;;;;;;;0.51;55.24;98841.94;5030477;28;20037;-75
2022/03/04 16:13:24;;;;;;;18.13;5.30;;;;;;;0.39;56.00;98841.66;5029060;28;20044;-75
2022/03/04 16:15:49;;;;;;;15.00;5.50;;;;;;;0.39;56.31;98844.22;5026648;28;20033;-74
2022/03/04 16:18:15;;;;;;;13.85;4.72;;;;;;;0.33;56.36;98847.47;5030763;28;20512;-74
2022/03/04 16:20:41;;;;;;;11.82;4.93;;;;;;;0.31;56.16;98836.38;5028484;28;20049;-74
2022/03/04 16:23:08;;;;;;;15.88;5.22;;;;;;;0.24;56.61;98842.16;5028073;28;20064;-74
2022/03/04 16:25:33;;;;;;;12.52;5.15;;;;;;;0.40;56.03;98843.38;5022660;28;20030;-75
2022/03/04 16:27:59;;;;;;;21.73;5.10;;;;;;;0.43;56.12;98838.34;4999969;28;20423;-75
2022/03/04 16:30:25;;;;;;;18.70;6.55;;;;;;;0.64;55.53;98843.06;5031461;28;20037;-77
2022/03/04 16:32:51;;;;;;;15.50;4.93;;;;;;;0.81;55.19;98840.88;5020539;28;20034;-76
2022/03/04 16:35:16;;;;;;;19.55;6.45;;;;;;;0.73;55.12;98848.38;5025728;28;20044;-75
2022/03/04 16:37:42;;;;;;;15.48;5.13;;;;;;;0.59;55.58;98852.31;5008795;28;20886;-76
2022/03/04 16:40:09;;;;;;;15.57;5.05;;;;;;;0.60;55.73;98846.41;5014445;28;20037;-74
2022/03/04 16:42:34;;;;;;;11.88;5.20;;;;;;;0.52;56.11;98855.56;5004128;28;20083;-76
2022/03/04 16:45:00;;;;;;;9.48;5.03;;;;;;;0.46;56.52;98844.41;5002137;28;20441;-74
2022/03/04 16:47:26;;;;;;;13.50;5.03;;;;;;;0.47;56.68;98840.16;5028630;28;20117;-74
2022/03/04 16:49:52;;;;;;;11.27;4.30;;;;;;;0.47;56.38;98843.56;5016127;28;20438;-75
2022/03/04 16:52:21;;;;;;;11.10;4.60;;;;;;;0.48;56.82;98847.81;5010359;28;20076;-75
2022/03/04 16:54:48;;;;;;;11.02;5.22;;;;;;;0.44;56.91;98856.25;5030889;28;20037;-75
2022/03/04 16:57:14;;;;;;;10.70;5.60;;;;;;;0.47;56.91;98861.41;5030581;28;20029;-76
2022/03/04 16:59:41;;;;;;;10.77;5.38;;;;;;;0.44;56.75;98860.47;5016350;28;20382;-75
2022/03/04 17:02:07;;;;;;;8.60;4.03;;;;;;;0.62;56.58;98867.69;5028370;28;20120;-74
2022/03/04 17:04:33;;;;;;;11.05;5.15;;;;;;;0.50;56.56;98863.16;5012886;28;20041;-74
2022/03/04 17:06:58;;;;;;;12.60;5.43;;;;;;;0.67;56.25;98861.88;5024161;28;20044;-74
2022/03/04 17:09:24;;;;;;;13.75;5.75;;;;;;;0.58;56.60;98869.31;5010448;28;20037;-76
2022/03/04 17:11:50;;;;;;;10.25;5.10;;;;;;;0.54;56.56;98871.75;5024032;28;20033;-73
2022/03/04 17:14:15;;;;;;;13.65;5.30;;;;;;;0.45;57.10;98864.75;5012083;28;20042;-74
2022/03/04 17:16:45;;;;;;;11.65;5.88;;;;;;;0.39;57.11;98862.06;5012299;28;20116;-75
2022/03/04 17:19:11;;;;;;;14.43;4.88;;;;;;;0.42;56.93;98868.13;5024957;28;20128;-75
2022/03/04 17:21:37;;;;;;;14.55;5.30;;;;;;;0.36;57.21;98878.16;5008637;28;20076;-75
2022/03/04 17:24:03;;;;;;;9.93;5.30;;;;;;;0.31;57.27;98886.53;5031663;28;20040;-76
2022/03/04 17:26:28;;;;;;;;;;;;;;;0.29;57.86;98881.41;5023418;28;20051;-74
2022/03/04 17:28:54;;;;;;;11.13;5.60;;;;;;;0.29;57.57;98881.41;5026746;28;20051;-75
2022/03/04 17:31:20;;;;;;;9.07;5.15;;;;;;;0.35;57.53;98891.75;5028551;28;20079;-77
2022/03/04 17:33:46;;;;;;;8.85;5.00;;;;;;;0.34;57.48;98884.06;5025648;28;20034;-75
2022/03/04 17:36:11;;;;;;;11.60;5.28;;;;;;;0.42;57.38;98875.75;5019425;28;20128;-74
2022/03/04 17:38:40;;;;;;;18.38;5.32;;;;;;;0.43;56.85;98890.25;5021952;28;20045;-77
2022/03/04 17:41:07;;;;;;;11.75;4.88;;;;;;;0.35;56.76;98884.09;5020288;28;20455;-75
2022/03/04 17:43:33;;;;;;;16.55;5.13;;;;;;;0.37;57.20;98887.56;5018169;28;20040;-78
2022/03/04 17:45:58;;;;;;;9.68;4.63;;;;;;;0.36;57.11;98879.84;5031598;28;20439;-76
2022/03/04 17:48:30;;;;;;;9.15;4.93;;;;;;;0.30;57.36;98878.00;5023532;28;20140;-78
2022/03/04 17:50:57;;;;;;;12.07;4.88;;;;;;;0.26;57.14;98896.63;5018224;28;20037;-79
2022/03/04 17:53:23;;;;;;;19.15;5.07;;;;;;;0.24;57.35;98894.03;5011989;28;20399;-77
2022/03/04 17:55:48;;;;;;;14.52;5.10;;;;;;;0.22;57.34;98888.03;5005498;28;20045;-77
2022/03/04 17:58:14;;;;;;;11.73;5.43;;;;;;;0.09;57.83;98897.88;5031440;28;20035;-77
2022/03/04 18:00:40;;;;;;;9.15;4.60;;;;;;;0.06;57.95;98902.94;5031552;28;20033;-77
2022/03/04 18:03:05;;;;;;;17.75;5.50;;;;;;;-0.08;58.54;98895.78;5031267;28;20045;-75
2022/03/04 18:05:31;;;;;;;12.43;4.30;;;;;;;0.14;57.64;98896.34;5024058;28;20042;-75
2022/03/04 18:07:59;;;;;;;14.73;5.00;;;;;;;0.18;57.77;98909.19;5046109;28;20033;-76
2022/03/04 18:10:25;;;;;;;;;;;;;;;0.24;58.06;98903.38;5012436;28;20038;-77
2022/03/04 18:12:51;;;;;;;13.02;5.22;;;;;;;0.22;57.53;98889.72;5016131;28;20281;-77
2022/03/04 18:15:17;;;;;;;9.73;4.20;;;;;;;0.14;57.46;98906.53;5043019;28;20765;-76
2022/03/04 18:17:42;;;;;;;11.70;4.10;;;;;;;0.07;57.92;98904.63;5009610;28;20057;-76
2022/03/04 18:20:09;;;;;;;9.23;4.38;;;;;;;0.08;58.11;98907.22;4994362;28;20037;-75
2022/03/04 18:22:35;;;;;;;9.25;4.68;;;;;;;0.08;58.19;98906.34;5029734;28;20489;-75
2022/03/04 18:25:00;;;;;;;;;;;;;;;-0.09;58.71;98914.47;4997431;28;20076;-77
2022/03/04 18:27:26;;;;;;;11.82;4.22;;;;;;;-0.16;58.68;98904.06;5025800;28;19952;-75
2022/03/04 18:29:52;;;;;;;7.30;4.13;;;;;;;-0.16;58.57;98897.25;5029799;28;20033;-77
2022/03/04 18:32:18;;;;;;;9.90;3.72;;;;;;;-0.01;58.49;98910.41;5013421;28;20552;-75
2022/03/04 18:34:44;;;;;;;;;;;;;;;-0.04;58.39;98912.03;5031942;28;20112;-76
2022/03/04 18:37:11;;;;;;;10.57;3.90;;;;;;;-0.12;58.14;98919.47;5030786;28;19916;-74
2022/03/04 18:42:21;;;;;;;8.13;3.50;;;;;;;-0.10;58.28;98924.59;5031848;28;20095;-77
2022/03/04 18:44:46;;;;;;;6.28;3.33;;;;;;;-0.06;57.92;98908.56;5034553;28;20071;-77
2022/03/04 18:47:12;;;;;;;8.15;3.47;;;;;;;-0.08;58.07;98912.78;5035360;28;20046;-77
2022/03/04 18:49:38;;;;;;;6.35;3.58;;;;;;;-0.23;58.50;98912.34;5033815;28;20033;-76
2022/03/04 18:52:04;;;;;;;15.45;8.90;;;;;;;-0.27;58.67;98919.94;5033788;28;20080;-76
2022/03/04 18:54:29;;;;;;;8.63;3.30;;;;;;;-0.29;58.58;98924.09;5033996;28;20099;-75
2022/03/04 18:56:55;;;;;;;7.75;3.42;;;;;;;-0.23;58.53;98920.84;5001218;28;20037;-75
2022/03/04 18:59:22;;;;;;;14.38;3.88;;;;;;;-0.21;58.44;98921.78;5033675;28;20038;-75
2022/03/04 19:01:54;;;;;;;9.55;3.70;;;;;;;-0.30;58.70;98918.97;5035334;28;20045;-75
2022/03/04 19:04:20;;;;;;;5.97;3.10;;;;;;;-0.35;58.89;98918.00;5001785;28;20034;-75
2022/03/04 19:06:46;;;;;;;9.15;3.30;;;;;;;-0.32;59.02;98925.69;5033926;28;20458;-76
2022/03/04 19:09:12;;;;;;;;;;;;;;;-0.29;58.91;98921.56;5022182;28;20088;-74
2022/03/04 19:11:40;;;;;;;8.23;3.72;;;;;;;-0.30;58.75;98924.06;5012853;28;19913;-77
2022/03/04 19:14:10;;;;;;;7.80;4.57;;;;;;;-0.34;59.16;98919.72;5013029;28;20053;-75
2022/03/04 19:16:37;;;;;;;6.22;3.03;;;;;;;-0.20;58.95;98925.19;5012952;28;20052;-76
2022/03/04 19:19:10;;;;;;;6.93;3.35;;;;;;;-0.14;58.52;98923.66;4997764;28;20042;-75
2022/03/04 19:21:36;;;;;;;7.82;3.50;;;;;;;-0.16;58.46;98915.09;5028157;28;20107;-76
2022/03/04 19:24:02;;;;;;;8.20;2.88;;;;;;;-0.01;58.01;98928.25;5032356;28;20033;-74
2022/03/04 19:26:28;;;;;;;11.05;3.55;;;;;;;-0.08;58.32;98916.19;4999553;28;20045;-74
2022/03/04 19:28:54;;;;;;;11.27;3.15;;;;;;;-0.10;58.41;98922.03;5029924;28;20040;-75
2022/03/04 19:31:26;;;;;;;;;;;;;;;-0.11;58.84;98927.97;5022341;28;20042;-74
2022/03/04 19:33:52;;;;;;;6.00;2.58;;;;;;;0.13;58.05;98925.19;5020550;28;19916;-78
2022/03/04 19:36:18;;;;;;;8.02;3.03;;;;;;;0.32;57.50;98927.41;5014884;28;20041;-77
2022/03/04 19:38:44;;;;;;;5.45;2.55;;;;;;;0.54;56.98;98922.78;5017246;28;20048;-74
2022/03/04 19:41:10;;;;;;;6.72;2.80;;;;;;;0.72;56.08;98920.69;5020720;28;20041;-75
2022/03/04 19:43:36;;;;;;;5.18;2.90;;;;;;;0.72;55.88;98920.69;5009614;28;20509;-76
2022/03/04 19:46:02;;;;;;;10.02;2.85;;;;;;;0.75;55.79;98919.06;5013328;28;20034;-79
2022/03/04 19:48:28;;;;;;;8.70;2.70;;;;;;;0.78;55.70;98918.28;5054447;28;20144;-74
2022/03/04 19:50:55;;;;;;;5.03;2.38;;;;;;;0.73;55.70;98920.72;5032820;28;20037;-75
2022/03/04 19:53:21;;;;;;;3.78;2.20;;;;;;;0.78;55.67;98928.50;5031351;28;20132;-79
2022/03/04 19:55:46;;;;;;;5.82;2.65;;;;;;;0.77;55.53;98921.66;5015567;28;20116;-74
2022/03/04 19:58:12;;;;;;;6.10;2.30;;;;;;;0.83;55.45;98920.94;5011253;28;20053;-77